Time;durP1;ratioP1;P1;durP2;ratioP2;P2;SDS_P1;SDS_P2;PMS_P1;PMS_P2;Temp;Humidity;BMP_temperature;BMP_pressure;BME280_temperature;BME280_humidity;BME280_pressure;Samples;Min_cycle;Max_cycle;Signal;HPM_P1;HPM_P2
2023/03/06 00:00:49;;;;;;;25.35;16.33;;;;;;;;;;5013711;28;20076;-72
2023/03/06 00:03:16;;;;;;;26.50;15.48;;;;;;;;;;5014823;28;20487;-72
2023/03/06 00:05:41;;;;;;;32.10;17.42;;;;;;;;;;5015003;28;20037;-71
2023/03/06 00:08:07;;;;;;;27.73;15.48;;;;;;;;;;5011241;28;20034;-71
2023/03/06 00:10:33;;;;;;;28.40;16.60;;;;;;;;;;5007801;28;20116;-71
2023/03/06 00:13:01;;;;;;;22.85;14.57;;;;;;;;;;5010008;28;20033;-72
2023/03/06 00:15:28;;;;;;;22.80;15.32;;;;;;;;;;5010760;28;20616;-71
2023/03/06 00:17:54;;;;;;;25.90;16.88;;;;;;;;;;5008121;28;20037;-72
2023/03/06 00:20:22;;;;;;;21.00;15.43;;;;;;;;;;5009099;28;20506;-71
2023/03/06 00:22:48;;;;;;;23.95;15.77;;;;;;;;;;5010103;28;20053;-71
2023/03/06 00:25:16;;;;;;;27.42;16.70;;;;;;;;;;5010088;28;20093;-72
2023/03/06 00:27:43;;;;;;;27.40;17.92;;;;;;;;;;5009872;28;20038;-72
2023/03/06 00:30:12;;;;;;;24.80;16.10;;;;;;;;;;5008736;28;20034;-71
2023/03/06 00:32:41;;;;;;;23.30;15.13;;;;;;;;;;5007281;28;20034;-71
2023/03/06 00:35:08;;;;;;;20.42;13.55;;;;;;;;;;5005798;28;20037;-72
2023/03/06 00:37:34;;;;;;;23.38;15.85;;;;;;;;;;5008535;28;20034;-71
2023/03/06 00:39:59;;;;;;;21.88;15.73;;;;;;;;;;4992859;28;20042;-72
2023/03/06 00:42:25;;;;;;;29.08;17.15;;;;;;;;;;4985686;28;20046;-72
2023/03/06 00:44:51;;;;;;;24.88;16.80;;;;;;;;;;4973018;28;20042;-72
2023/03/06 00:47:17;;;;;;;30.85;16.40;;;;;;;;;;4972679;28;20038;-71
2023/03/06 00:49:43;;;;;;;27.23;15.93;;;;;;;;;;4972104;28;20117;-71
2023/03/06 00:52:09;;;;;;;27.67;15.35;;;;;;;;;;4991077;28;20044;-71
2023/03/06 00:54:35;;;;;;;24.63;14.27;;;;;;;;;;4972415;28;20022;-71
2023/03/06 00:57:01;;;;;;;26.38;15.10;;;;;;;;;;4972219;28;20026;-71
2023/03/06 00:59:26;;;;;;;27.95;15.60;;;;;;;;;;4990800;28;20113;-72
2023/03/06 01:01:53;;;;;;;18.80;13.13;;;;;;;;;;4973189;28;20046;-72
2023/03/06 01:04:19;;;;;;;21.48;14.60;;;;;;;;;;4989827;28;20050;-72
2023/03/06 01:06:47;;;;;;;23.63;15.57;;;;;;;;;;4990892;28;20042;-72
2023/03/06 01:09:12;;;;;;;23.85;14.50;;;;;;;;;;4973274;28;20034;-72
2023/03/06 01:11:38;;;;;;;24.42;15.10;;;;;;;;;;4973173;28;20397;-71
2023/03/06 01:14:04;;;;;;;32.38;19.90;;;;;;;;;;4990733;28;20045;-71
2023/03/06 01:16:30;;;;;;;32.80;20.80;;;;;;;;;;4989962;28;20086;-71
2023/03/06 01:18:55;;;;;;;34.00;20.13;;;;;;;;;;4971474;28;20086;-71
2023/03/06 01:21:22;;;;;;;27.60;17.00;;;;;;;;;;4973234;28;20037;-71
2023/03/06 01:23:47;;;;;;;27.85;16.55;;;;;;;;;;5005470;28;20555;-71
2023/03/06 01:26:13;;;;;;;36.55;18.17;;;;;;;;;;4973061;28;20034;-72
2023/03/06 01:28:39;;;;;;;27.48;16.50;;;;;;;;;;4990074;28;20082;-71
2023/03/06 01:31:07;;;;;;;24.02;14.77;;;;;;;;;;4971950;28;20041;-71
2023/03/06 01:33:33;;;;;;;24.52;15.70;;;;;;;;;;4971141;28;20108;-73
2023/03/06 01:36:02;;;;;;;25.60;15.20;;;;;;;;;;4989746;28;20785;-72
2023/03/06 01:38:27;;;;;;;32.22;15.77;;;;;;;;;;4972796;28;20026;-71
2023/03/06 01:40:53;;;;;;;27.40;15.95;;;;;;;;;;4987748;28;20496;-71
2023/03/06 01:43:28;;;;;;;31.58;17.63;;;;;;;;;;4971433;28;20022;-72
2023/03/06 01:46:16;;;;;;;20.17;13.07;;;;;;;;;;4988854;28;20086;-71
2023/03/06 01:48:43;;;;;;;8.40;6.65;;;;;;;;;;4988629;28;20125;-72
2023/03/06 01:51:10;;;;;;;12.05;6.05;;;;;;;;;;4991170;28;20058;-71
2023/03/06 01:53:38;;;;;;;18.75;6.35;;;;;;;;;;4991775;28;20179;-71
2023/03/06 01:56:05;;;;;;;11.27;6.78;;;;;;;;;;4959370;28;20061;-71
2023/03/06 01:58:31;;;;;;;13.07;8.13;;;;;;;;;;4991101;28;20030;-72
2023/03/06 02:00:57;;;;;;;12.85;7.40;;;;;;;;;;4975257;28;20022;-71
2023/03/06 02:03:26;;;;;;;20.15;8.32;;;;;;;;;;4992200;28;20484;-71
2023/03/06 02:05:52;;;;;;;14.15;7.50;;;;;;;;;;4975156;28;20058;-71
2023/03/06 02:08:20;;;;;;;12.10;8.65;;;;;;;;;;4974417;28;20045;-71
2023/03/06 02:11:11;;;;;;;45.47;9.20;;;;;;;;;;4974333;28;20073;-71
2023/03/06 02:13:38;;;;;;;29.85;7.80;;;;;;;;;;4994274;28;20038;-71
2023/03/06 02:16:05;;;;;;;15.00;8.45;;;;;;;;;;4994641;28;20519;-71
2023/03/06 02:18:32;;;;;;;14.48;8.52;;;;;;;;;;5005767;28;20030;-71
2023/03/06 02:21:01;;;;;;;15.50;8.13;;;;;;;;;;4992236;28;20026;-71
2023/03/06 02:23:37;;;;;;;11.75;8.27;;;;;;;;;;5000515;28;20044;-71
2023/03/06 02:26:04;;;;;;;17.42;8.63;;;;;;;;;;5010561;28;20514;-71
2023/03/06 02:28:30;;;;;;;14.45;9.55;;;;;;;;;;5009987;28;20037;-71
2023/03/06 02:30:56;;;;;;;60.03;11.15;;;;;;;;;;4991735;28;20040;-71
2023/03/06 02:33:26;;;;;;;11.73;8.27;;;;;;;;;;4988318;28;20476;-71
2023/03/06 02:35:57;;;;;;;17.67;10.50;;;;;;;;;;4994475;28;20038;-71
2023/03/06 02:38:31;;;;;;;63.13;11.63;;;;;;;;;;4990250;28;20026;-71
2023/03/06 02:40:58;;;;;;;62.75;11.23;;;;;;;;;;4991952;28;20038;-71
2023/03/06 02:43:31;;;;;;;38.35;10.32;;;;;;;;;;4970550;28;20027;-71
2023/03/06 02:45:57;;;;;;;22.55;10.95;;;;;;;;;;4968966;28;20046;-71
2023/03/06 02:48:23;;;;;;;25.55;10.38;;;;;;;;;;4986828;28;20034;-71
2023/03/06 02:50:49;;;;;;;13.35;10.43;;;;;;;;;;4987292;28;20034;-71
2023/03/06 02:53:17;;;;;;;17.38;9.70;;;;;;;;;;4986333;28;20026;-71
2023/03/06 02:55:44;;;;;;;16.08;10.63;;;;;;;;;;4969188;28;20080;-71
2023/03/06 02:58:10;;;;;;;12.65;9.52;;;;;;;;;;4968325;28;20026;-71
2023/03/06 03:00:35;;;;;;;17.15;9.40;;;;;;;;;;4969189;28;20105;-72
2023/03/06 03:03:05;;;;;;;23.20;9.05;;;;;;;;;;4986580;28;20129;-72
2023/03/06 03:05:31;;;;;;;32.08;10.27;;;;;;;;;;4991272;28;20375;-72
2023/03/06 03:08:03;;;;;;;38.53;9.73;;;;;;;;;;4972314;28;20390;-72
2023/03/06 03:10:29;;;;;;;16.90;8.10;;;;;;;;;;5000560;28;20065;-72
2023/03/06 03:12:54;;;;;;;11.82;8.20;;;;;;;;;;5002194;28;20480;-72
2023/03/06 03:15:22;;;;;;;33.70;9.95;;;;;;;;;;4986682;28;20545;-72
2023/03/06 03:17:48;;;;;;;20.60;8.68;;;;;;;;;;4969720;28;20064;-72
2023/03/06 03:20:16;;;;;;;18.65;8.95;;;;;;;;;;5004220;28;20484;-72
2023/03/06 03:22:45;;;;;;;22.20;9.57;;;;;;;;;;4972076;28;20157;-72
2023/03/06 03:25:11;;;;;;;12.40;8.68;;;;;;;;;;4973913;28;20137;-73
2023/03/06 03:27:37;;;;;;;14.65;9.85;;;;;;;;;;4973459;28;20149;-72
2023/03/06 03:30:03;;;;;;;24.30;10.77;;;;;;;;;;4991348;28;20041;-71
2023/03/06 03:32:29;;;;;;;26.25;11.70;;;;;;;;;;4991781;28;20034;-71
2023/03/06 03:34:55;;;;;;;24.55;12.80;;;;;;;;;;4991319;28;20038;-71
2023/03/06 03:37:21;;;;;;;31.73;13.63;;;;;;;;;;4988174;28;20117;-72
2023/03/06 03:39:47;;;;;;;33.60;11.65;;;;;;;;;;4988312;28;20136;-72
2023/03/06 03:42:13;;;;;;;23.10;10.98;;;;;;;;;;4992194;28;20046;-72
2023/03/06 03:44:38;;;;;;;42.00;11.65;;;;;;;;;;4969950;28;20435;-72
2023/03/06 03:47:05;;;;;;;18.42;10.73;;;;;;;;;;5004150;28;20508;-72
2023/03/06 03:49:31;;;;;;;19.30;10.30;;;;;;;;;;4971766;28;20057;-72
2023/03/06 03:51:58;;;;;;;27.63;12.10;;;;;;;;;;4972619;28;20041;-71
2023/03/06 03:54:27;;;;;;;24.42;12.70;;;;;;;;;;4973795;28;20031;-72
2023/03/06 03:56:53;;;;;;;24.77;14.20;;;;;;;;;;4974964;28;20031;-71
2023/03/06 03:59:24;;;;;;;25.85;14.00;;;;;;;;;;4975284;28;20038;-71
2023/03/06 04:02:28;;;;;;;30.60;12.65;;;;;;;;;;4933249;29;20063;-72
2023/03/06 04:05:05;;;;;;;22.75;13.32;;;;;;;;;;4935573;29;20130;-71
2023/03/06 04:07:31;;;;;;;23.38;13.38;;;;;;;;;;4968342;28;20076;-72
2023/03/06 04:09:57;;;;;;;23.02;11.63;;;;;;;;;;4988145;28;20453;-72
2023/03/06 04:12:24;;;;;;;26.95;13.82;;;;;;;;;;5008200;28;20030;-72
2023/03/06 04:14:50;;;;;;;21.08;14.00;;;;;;;;;;4978646;28;20488;-72
2023/03/06 04:17:16;;;;;;;26.38;12.65;;;;;;;;;;4974384;28;20026;-71
2023/03/06 04:19:43;;;;;;;30.77;12.85;;;;;;;;;;4990232;28;20037;-72
2023/03/06 04:22:08;;;;;;;28.80;12.50;;;;;;;;;;5012991;28;20038;-71
2023/03/06 04:24:37;;;;;;;47.22;15.27;;;;;;;;;;4998703;28;20073;-71
2023/03/06 04:27:03;;;;;;;29.70;14.50;;;;;;;;;;4994206;28;20039;-71
2023/03/06 04:29:28;;;;;;;40.88;16.38;;;;;;;;;;4960109;28;20030;-71
2023/03/06 04:31:54;;;;;;;21.45;13.25;;;;;;;;;;4975261;28;20027;-71
2023/03/06 04:34:20;;;;;;;80.35;19.27;;;;;;;;;;4992323;28;20117;-71
2023/03/06 04:36:45;;;;;;;49.35;18.58;;;;;;;;;;4990761;28;20128;-72
2023/03/06 04:39:15;;;;;;;42.95;18.63;;;;;;;;;;5016444;28;20053;-71
2023/03/06 04:41:41;;;;;;;34.97;18.67;;;;;;;;;;5008878;28;20088;-71
2023/03/06 04:44:08;;;;;;;32.35;18.90;;;;;;;;;;5010081;28;20037;-72
2023/03/06 04:46:34;;;;;;;49.90;20.65;;;;;;;;;;5012305;28;20079;-71
2023/03/06 04:49:00;;;;;;;35.50;18.70;;;;;;;;;;5012376;28;20487;-72
2023/03/06 04:51:26;;;;;;;37.60;18.27;;;;;;;;;;4990842;28;20036;-72
2023/03/06 04:53:52;;;;;;;29.17;16.63;;;;;;;;;;5012740;28;20104;-72
2023/03/06 04:56:18;;;;;;;28.85;15.75;;;;;;;;;;5013016;28;20407;-72
2023/03/06 04:58:43;;;;;;;37.85;16.75;;;;;;;;;;5011406;28;20045;-71
2023/03/06 05:01:10;;;;;;;37.85;16.88;;;;;;;;;;5013554;28;20048;-72
2023/03/06 05:03:36;;;;;;;28.42;16.13;;;;;;;;;;5013839;28;20026;-71
2023/03/06 05:06:04;;;;;;;24.77;13.93;;;;;;;;;;5013618;28;20030;-71
2023/03/06 05:08:30;;;;;;;58.75;20.50;;;;;;;;;;5012916;28;20022;-71
2023/03/06 05:11:00;;;;;;;38.75;15.23;;;;;;;;;;5013236;28;20044;-71
2023/03/06 05:13:27;;;;;;;20.92;11.27;;;;;;;;;;5013110;28;20030;-71
2023/03/06 05:15:53;;;;;;;22.95;12.88;;;;;;;;;;5013235;28;20022;-71
2023/03/06 05:18:20;;;;;;;20.95;11.27;;;;;;;;;;4995000;28;20062;-71
2023/03/06 05:20:46;;;;;;;63.63;12.50;;;;;;;;;;5003845;28;20033;-72
2023/03/06 05:23:12;;;;;;;97.82;11.80;;;;;;;;;;5013061;28;20033;-72
2023/03/06 05:25:41;;;;;;;63.95;16.40;;;;;;;;;;5013842;28;20574;-71
2023/03/06 05:28:07;;;;;;;38.67;13.88;;;;;;;;;;5012747;28;20029;-71
2023/03/06 05:30:33;;;;;;;20.83;12.02;;;;;;;;;;5002985;28;20014;-72
2023/03/06 05:32:59;;;;;;;12.32;9.35;;;;;;;;;;5013050;28;20033;-72
2023/03/06 05:35:25;;;;;;;17.92;9.95;;;;;;;;;;5012774;28;20028;-72
2023/03/06 05:37:51;;;;;;;13.57;9.65;;;;;;;;;;5012441;28;20038;-72
2023/03/06 05:40:17;;;;;;;25.20;10.65;;;;;;;;;;5006751;28;20491;-72
2023/03/06 05:42:43;;;;;;;63.60;11.43;;;;;;;;;;5010657;28;20038;-72
2023/03/06 05:45:10;;;;;;;73.68;15.35;;;;;;;;;;4991941;28;20029;-72
2023/03/06 05:47:35;;;;;;;70.70;18.05;;;;;;;;;;4994467;28;20032;-72
2023/03/06 05:50:02;;;;;;;48.40;15.30;;;;;;;;;;5012816;28;20021;-73
2023/03/06 05:52:28;;;;;;;28.83;14.73;;;;;;;;;;5012595;28;20100;-71
2023/03/06 05:54:54;;;;;;;53.75;15.93;;;;;;;;;;5012165;28;20025;-71
2023/03/06 05:57:21;;;;;;;66.38;13.70;;;;;;;;;;5011032;28;20061;-72
2023/03/06 05:59:48;;;;;;;111.55;13.63;;;;;;;;;;5012425;28;20108;-72
2023/03/06 06:02:16;;;;;;;66.85;16.85;;;;;;;;;;5001096;28;20484;-72
2023/03/06 06:04:42;;;;;;;30.13;16.35;;;;;;;;;;5009243;28;20042;-72
2023/03/06 06:07:12;;;;;;;65.72;16.08;;;;;;;;;;4993648;28;20121;-71
2023/03/06 06:09:38;;;;;;;31.15;13.00;;;;;;;;;;5011243;28;20514;-71
2023/03/06 06:12:04;;;;;;;36.38;12.45;;;;;;;;;;5010575;28;20129;-71
2023/03/06 06:14:32;;;;;;;32.13;11.85;;;;;;;;;;5014815;28;20111;-72
2023/03/06 06:16:58;;;;;;;28.77;10.05;;;;;;;;;;4997255;28;20116;-73
2023/03/06 06:19:28;;;;;;;42.17;11.90;;;;;;;;;;5004651;28;20039;-71
2023/03/06 06:21:55;;;;;;;24.02;9.15;;;;;;;;;;5011531;28;20134;-72
2023/03/06 06:24:23;;;;;;;16.55;7.32;;;;;;;;;;5010889;28;20034;-72
2023/03/06 06:26:52;;;;;;;25.70;8.05;;;;;;;;;;5011965;28;20030;-73
2023/03/06 06:29:18;;;;;;;31.63;7.97;;;;;;;;;;5011869;28;20061;-71
2023/03/06 06:31:44;;;;;;;30.73;8.95;;;;;;;;;;5009821;28;20480;-71
2023/03/06 06:34:10;;;;;;;41.90;10.70;;;;;;;;;;5010256;28;20069;-72
2023/03/06 06:36:38;;;;;;;34.95;10.90;;;;;;;;;;5010857;28;20081;-72
2023/03/06 06:39:07;;;;;;;27.55;8.55;;;;;;;;;;5011598;28;20064;-73
2023/03/06 06:41:34;;;;;;;28.00;10.27;;;;;;;;;;5010513;28;20095;-72
2023/03/06 06:44:00;;;;;;;53.47;10.77;;;;;;;;;;5011103;28;20046;-71
2023/03/06 06:46:26;;;;;;;79.50;9.73;;;;;;;;;;5011291;28;20033;-73
2023/03/06 06:48:55;;;;;;;25.38;9.35;;;;;;;;;;5009825;28;20499;-73
2023/03/06 06:51:22;;;;;;;16.50;8.77;;;;;;;;;;5010688;28;20054;-72
2023/03/06 06:53:50;;;;;;;18.45;8.93;;;;;;;;;;4993188;28;20032;-72
2023/03/06 06:56:16;;;;;;;18.80;9.73;;;;;;;;;;5010638;28;20117;-72
2023/03/06 06:58:41;;;;;;;15.93;8.73;;;;;;;;;;4992803;28;20082;-73
2023/03/06 07:01:12;;;;;;;21.10;10.43;;;;;;;;;;4997011;28;20416;-73
2023/03/06 07:03:39;;;;;;;35.35;11.73;;;;;;;;;;5014972;28;20034;-72
2023/03/06 07:06:05;;;;;;;28.33;10.25;;;;;;;;;;5012958;28;20073;-72
2023/03/06 07:08:32;;;;;;;44.33;11.30;;;;;;;;;;4996479;28;20081;-72
2023/03/06 07:11:03;;;;;;;38.63;10.63;;;;;;;;;;5014023;28;20036;-72
2023/03/06 07:13:29;;;;;;;28.65;9.85;;;;;;;;;;5014830;28;20089;-72
2023/03/06 07:15:55;;;;;;;20.42;9.82;;;;;;;;;;5014979;28;20416;-72
2023/03/06 07:18:20;;;;;;;18.70;8.52;;;;;;;;;;5015174;28;20057;-71
2023/03/06 07:20:46;;;;;;;15.40;9.30;;;;;;;;;;5030217;28;20396;-72
2023/03/06 07:23:12;;;;;;;34.65;11.40;;;;;;;;;;5014612;28;20042;-72
2023/03/06 07:25:39;;;;;;;13.35;9.00;;;;;;;;;;5013906;28;20052;-72
2023/03/06 07:28:06;;;;;;;14.52;9.43;;;;;;;;;;5014342;28;20570;-71
2023/03/06 07:30:31;;;;;;;27.35;10.02;;;;;;;;;;5004526;28;20029;-72
2023/03/06 07:32:58;;;;;;;23.58;9.75;;;;;;;;;;5014603;28;20101;-72
2023/03/06 07:35:24;;;;;;;44.72;9.63;;;;;;;;;;4996936;28;20045;-73
2023/03/06 07:37:51;;;;;;;19.27;10.32;;;;;;;;;;5013476;28;20184;-72
2023/03/06 07:40:18;;;;;;;18.65;11.25;;;;;;;;;;5020728;28;20025;-72
2023/03/06 07:42:45;;;;;;;23.05;11.02;;;;;;;;;;5013726;28;20567;-72
2023/03/06 07:45:17;;;;;;;14.38;8.70;;;;;;;;;;5000495;28;20042;-72
2023/03/06 07:47:42;;;;;;;17.85;9.35;;;;;;;;;;5013543;28;20041;-72
2023/03/06 07:50:10;;;;;;;13.73;8.10;;;;;;;;;;5022958;28;20203;-73
2023/03/06 07:52:37;;;;;;;14.30;9.05;;;;;;;;;;5034528;28;20735;-73
2023/03/06 07:55:03;;;;;;;15.13;9.32;;;;;;;;;;5034029;28;20108;-73
2023/03/06 07:57:29;;;;;;;23.02;9.23;;;;;;;;;;5033924;28;20412;-72
2023/03/06 07:59:55;;;;;;;20.83;10.13;;;;;;;;;;5016716;28;20022;-74
2023/03/06 08:02:22;;;;;;;23.75;11.25;;;;;;;;;;5011993;28;20150;-72
2023/03/06 08:04:52;;;;;;;19.85;11.02;;;;;;;;;;5014631;28;20120;-71
2023/03/06 08:07:19;;;;;;;21.92;10.77;;;;;;;;;;5014374;28;20073;-72
2023/03/06 08:09:44;;;;;;;23.33;10.50;;;;;;;;;;5013522;28;20022;-71
2023/03/06 08:12:13;;;;;;;17.38;10.65;;;;;;;;;;5015811;28;20053;-71
2023/03/06 08:14:39;;;;;;;28.85;11.40;;;;;;;;;;5013847;28;20022;-72
2023/03/06 08:17:05;;;;;;;21.65;12.13;;;;;;;;;;5003581;28;20389;-71
2023/03/06 08:19:31;;;;;;;18.63;11.63;;;;;;;;;;5012586;28;20367;-72
2023/03/06 08:21:57;;;;;;;21.17;11.30;;;;;;;;;;5012114;28;20495;-72
2023/03/06 08:24:23;;;;;;;21.67;11.68;;;;;;;;;;5011871;28;20041;-73
2023/03/06 08:26:49;;;;;;;26.27;14.05;;;;;;;;;;5028592;28;20042;-72
2023/03/06 08:29:15;;;;;;;19.83;12.23;;;;;;;;;;5013430;28;20033;-72
2023/03/06 08:31:43;;;;;;;19.85;11.55;;;;;;;;;;5013265;28;20042;-72
2023/03/06 08:34:14;;;;;;;15.63;11.30;;;;;;;;;;5013809;28;20065;-71
2023/03/06 08:36:41;;;;;;;28.38;13.27;;;;;;;;;;4978807;28;20049;-72
2023/03/06 08:39:07;;;;;;;19.45;12.02;;;;;;;;;;5003074;28;20396;-73
2023/03/06 08:41:34;;;;;;;32.47;13.55;;;;;;;;;;5012999;28;20116;-72
2023/03/06 08:43:59;;;;;;;19.50;12.48;;;;;;;;;;5013284;28;20030;-71
2023/03/06 08:46:27;;;;;;;20.73;13.90;;;;;;;;;;5012643;28;20030;-73
2023/03/06 08:48:53;;;;;;;21.65;13.77;;;;;;;;;;5030672;28;20045;-71
2023/03/06 08:51:21;;;;;;;30.13;14.70;;;;;;;;;;5014915;28;20052;-73
2023/03/06 08:53:47;;;;;;;20.05;13.88;;;;;;;;;;5032308;28;20444;-73
2023/03/06 08:56:18;;;;;;;23.65;13.85;;;;;;;;;;5032461;28;20557;-72
2023/03/06 08:58:44;;;;;;;28.70;12.90;;;;;;;;;;5010167;28;20669;-72
2023/03/06 09:01:15;;;;;;;36.47;15.85;;;;;;;;;;4994860;28;20487;-73
2023/03/06 09:03:41;;;;;;;25.58;14.65;;;;;;;;;;5011461;28;20046;-73
2023/03/06 09:06:06;;;;;;;25.60;15.10;;;;;;;;;;5011681;28;20407;-72
2023/03/06 09:08:32;;;;;;;27.90;15.20;;;;;;;;;;5009849;28;20376;-72
2023/03/06 09:10:58;;;;;;;19.48;13.45;;;;;;;;;;5004733;28;20030;-72
2023/03/06 09:13:25;;;;;;;21.85;12.57;;;;;;;;;;5011615;28;20048;-72
2023/03/06 09:15:50;;;;;;;17.17;12.63;;;;;;;;;;5012746;28;20025;-72
2023/03/06 09:18:16;;;;;;;21.83;10.90;;;;;;;;;;5012688;28;20092;-72
2023/03/06 09:20:43;;;;;;;11.07;7.57;;;;;;;;;;4994739;28;20038;-71
2023/03/06 09:23:09;;;;;;;13.88;7.25;;;;;;;;;;4995822;28;20042;-71
2023/03/06 09:25:35;;;;;;;10.90;6.25;;;;;;;;;;5012770;28;20093;-71
2023/03/06 09:28:01;;;;;;;9.18;6.00;;;;;;;;;;4994366;28;20038;-72
2023/03/06 09:30:26;;;;;;;9.52;4.97;;;;;;;;;;5011835;28;20017;-72
2023/03/06 09:32:52;;;;;;;17.67;6.25;;;;;;;;;;5012170;28;20191;-72
2023/03/06 09:35:17;;;;;;;12.52;6.15;;;;;;;;;;5012459;28;20018;-72
2023/03/06 09:37:45;;;;;;;13.48;5.20;;;;;;;;;;4994748;28;20544;-72
2023/03/06 09:40:23;;;;;;;14.85;5.40;;;;;;;;;;5012201;28;20030;-72
2023/03/06 09:42:49;;;;;;;8.75;5.05;;;;;;;;;;5012252;28;20037;-73
2023/03/06 09:45:15;;;;;;;10.43;5.78;;;;;;;;;;4994311;28;20029;-72
2023/03/06 09:47:46;;;;;;;8.90;4.90;;;;;;;;;;5011966;28;20034;-73
2023/03/06 09:50:31;;;;;;;8.38;4.95;;;;;;;;;;5011804;28;20049;-73
2023/03/06 09:53:15;;;;;;;9.43;5.50;;;;;;;;;;5012237;28;20033;-74
2023/03/06 09:55:43;;;;;;;;;;;;;;;;;;5012251;28;20053;-72
2023/03/06 09:58:28;;;;;;;24.05;5.07;;;;;;;;;;5011799;28;19910;-73
2023/03/06 10:01:06;;;;;;;9.65;4.03;;;;;;;;;;4994502;28;20041;-72
2023/03/06 10:04:19;;;;;;;13.00;4.22;;;;;;;;;;5011949;28;20045;-72
2023/03/06 10:06:52;;;;;;;15.77;3.83;;;;;;;;;;4951025;28;20050;-72
2023/03/06 10:09:29;;;;;;;8.50;3.60;;;;;;;;;;5011468;28;20034;-72
2023/03/06 10:11:59;;;;;;;6.60;3.63;;;;;;;;;;5011172;28;20451;-73
2023/03/06 10:14:38;;;;;;;4.75;3.05;;;;;;;;;;5012000;28;20113;-72
2023/03/06 10:17:13;;;;;;;10.27;4.05;;;;;;;;;;5012097;28;20088;-71
2023/03/06 10:19:41;;;;;;;6.18;3.05;;;;;;;;;;5010905;28;20053;-71
2023/03/06 10:22:43;;;;;;;7.20;3.45;;;;;;;;;;5010314;28;20034;-71
2023/03/06 10:25:21;;;;;;;10.50;5.25;;;;;;;;;;5003327;28;20116;-72
2023/03/06 10:27:49;;;;;;;6.30;2.50;;;;;;;;;;5003669;28;20582;-72
2023/03/06 10:30:24;;;;;;;6.68;3.85;;;;;;;;;;5010644;28;20101;-71
2023/03/06 10:32:57;;;;;;;6.28;2.67;;;;;;;;;;5014386;28;20117;-71
2023/03/06 10:35:46;;;;;;;5.78;2.88;;;;;;;;;;5012579;28;20037;-70
2023/03/06 10:38:17;;;;;;;5.57;2.50;;;;;;;;;;4988975;28;20041;-71
2023/03/06 10:41:02;;;;;;;5.95;3.80;;;;;;;;;;5009034;28;20026;-71
2023/03/06 10:43:28;;;;;;;4.40;2.58;;;;;;;;;;5010999;28;20285;-72
2023/03/06 10:45:54;;;;;;;4.47;2.72;;;;;;;;;;5011236;28;20054;-71
2023/03/06 10:48:23;;;;;;;5.82;2.92;;;;;;;;;;5011583;28;20034;-71
2023/03/06 10:50:49;;;;;;;6.68;3.45;;;;;;;;;;5016995;28;20025;-72
2023/03/06 10:53:27;;;;;;;4.40;2.42;;;;;;;;;;5005897;28;20033;-71
2023/03/06 10:55:58;;;;;;;5.10;2.83;;;;;;;;;;5010947;28;20038;-72
2023/03/06 10:58:31;;;;;;;5.95;3.28;;;;;;;;;;5010760;28;20113;-72
2023/03/06 11:01:19;;;;;;;4.13;2.58;;;;;;;;;;5011025;28;20044;-71
2023/03/06 11:03:46;;;;;;;6.78;3.22;;;;;;;;;;5010792;28;20111;-72
2023/03/06 11:06:34;;;;;;;6.90;3.83;;;;;;;;;;5010657;28;20030;-72
2023/03/06 11:09:17;;;;;;;7.40;3.70;;;;;;;;;;5010539;28;20048;-72
2023/03/06 11:11:43;;;;;;;7.65;3.45;;;;;;;;;;4992942;28;20116;-72
2023/03/06 11:14:17;;;;;;;4.63;2.70;;;;;;;;;;5010701;28;20120;-72
2023/03/06 11:16:54;;;;;;;4.55;2.92;;;;;;;;;;5009688;28;20171;-72
2023/03/06 11:19:26;;;;;;;4.88;2.70;;;;;;;;;;5010713;28;20105;-72
2023/03/06 11:22:18;;;;;;;7.65;2.75;;;;;;;;;;5010704;28;20459;-72
2023/03/06 11:24:48;;;;;;;4.90;2.63;;;;;;;;;;5005941;28;20415;-71
2023/03/06 11:27:18;;;;;;;8.27;3.15;;;;;;;;;;5010740;28;20054;-72
2023/03/06 11:29:48;;;;;;;11.73;6.82;;;;;;;;;;5010865;28;20061;-73
2023/03/06 11:32:22;;;;;;;4.30;2.55;;;;;;;;;;5009372;28;20432;-71
2023/03/06 11:34:57;;;;;;;4.50;2.90;;;;;;;;;;5010928;28;20044;-74
2023/03/06 11:37:39;;;;;;;4.82;2.38;;;;;;;;;;4993291;28;20407;-72
2023/03/06 11:40:23;;;;;;;6.40;2.00;;;;;;;;;;5010960;28;20029;-72
2023/03/06 11:43:06;;;;;;;5.13;2.15;;;;;;;;;;5012224;28;20121;-72
2023/03/06 11:45:50;;;;;;;5.87;3.00;;;;;;;;;;5011632;28;20049;-71
2023/03/06 11:48:22;;;;;;;5.28;2.88;;;;;;;;;;5011574;28;20470;-72
2023/03/06 11:50:51;;;;;;;5.07;3.03;;;;;;;;;;5014226;28;20041;-70
2023/03/06 11:53:25;;;;;;;6.93;3.30;;;;;;;;;;5007718;28;20069;-71
2023/03/06 11:56:23;;;;;;;4.82;2.47;;;;;;;;;;5012673;28;20080;-73
2023/03/06 11:59:07;;;;;;;6.80;2.83;;;;;;;;;;5013737;28;20112;-72
2023/03/06 12:01:40;;;;;;;6.13;3.05;;;;;;;;;;5013523;28;20057;-71
2023/03/06 12:04:34;;;;;;;3.30;1.95;;;;;;;;;;5014329;28;20093;-72
2023/03/06 12:07:14;;;;;;;4.93;2.75;;;;;;;;;;5014188;28;20053;-72
2023/03/06 12:10:03;;;;;;;7.40;2.95;;;;;;;;;;5013842;28;20042;-71
2023/03/06 12:12:38;;;;;;;4.60;2.78;;;;;;;;;;5014766;28;20037;-71
2023/03/06 12:15:15;;;;;;;5.07;3.00;;;;;;;;;;5014117;28;20446;-73
2023/03/06 12:17:58;;;;;;;4.78;2.85;;;;;;;;;;5013882;28;20487;-73
2023/03/06 12:20:53;;;;;;;4.43;2.65;;;;;;;;;;5013346;28;20124;-72
2023/03/06 12:23:33;;;;;;;;;;;;;;;;;;5011591;28;20042;-73
2023/03/06 12:26:27;;;;;;;12.23;5.53;;;;;;;;;;5013584;28;19914;-73
2023/03/06 12:29:17;;;;;;;6.22;3.53;;;;;;;;;;5012614;28;20072;-73
2023/03/06 12:31:49;;;;;;;9.60;4.57;;;;;;;;;;4993496;28;20061;-73
2023/03/06 12:34:20;;;;;;;7.55;3.65;;;;;;;;;;4993829;28;20038;-73
2023/03/06 12:37:02;;;;;;;10.57;5.00;;;;;;;;;;4994090;28;20105;-73
2023/03/06 12:39:39;;;;;;;5.70;2.70;;;;;;;;;;4994145;28;20026;-74
2023/03/06 12:42:13;;;;;;;6.28;3.95;;;;;;;;;;4994019;28;20034;-74
2023/03/06 12:45:20;;;;;;;13.15;3.50;;;;;;;;;;4994282;28;20034;-74
2023/03/06 12:47:49;;;;;;;4.97;2.42;;;;;;;;;;4987050;28;20302;-74
2023/03/06 12:50:27;;;;;;;3.75;2.60;;;;;;;;;;4993969;28;20105;-74
2023/03/06 12:52:56;;;;;;;7.30;2.83;;;;;;;;;;5008270;28;20177;-73
2023/03/06 12:55:23;;;;;;;5.22;2.67;;;;;;;;;;4993224;28;20029;-73
2023/03/06 12:57:49;;;;;;;6.32;2.58;;;;;;;;;;4993728;28;20468;-73
2023/03/06 13:00:33;;;;;;;4.15;2.50;;;;;;;;;;4975383;28;20030;-72
2023/03/06 13:03:05;;;;;;;8.57;3.65;;;;;;;;;;4993660;28;20050;-72
2023/03/06 13:05:39;;;;;;;7.97;3.63;;;;;;;;;;4993374;28;20045;-72
2023/03/06 13:08:19;;;;;;;9.40;3.40;;;;;;;;;;4993308;28;20042;-73
2023/03/06 13:11:15;;;;;;;9.48;3.15;;;;;;;;;;4993453;28;20038;-70
2023/03/06 13:13:43;;;;;;;8.13;3.33;;;;;;;;;;5005936;28;20061;-72
2023/03/06 13:16:43;;;;;;;9.45;3.85;;;;;;;;;;4975801;28;20022;-72
2023/03/06 13:19:18;;;;;;;10.65;3.67;;;;;;;;;;4970819;28;20054;-71
2023/03/06 13:21:59;;;;;;;5.45;2.55;;;;;;;;;;4993389;28;20109;-71
2023/03/06 13:24:26;;;;;;;4.10;2.00;;;;;;;;;;4993330;28;20042;-73
2023/03/06 13:27:06;;;;;;;5.20;2.70;;;;;;;;;;4992649;28;20022;-71
2023/03/06 13:29:35;;;;;;;9.60;3.88;;;;;;;;;;4993139;28;20117;-72
2023/03/06 13:32:00;;;;;;;8.65;3.05;;;;;;;;;;4993119;28;20086;-72
2023/03/06 13:34:35;;;;;;;12.38;3.42;;;;;;;;;;4992982;28;20030;-72
2023/03/06 13:37:22;;;;;;;8.52;3.35;;;;;;;;;;4993123;28;20039;-72
2023/03/06 13:40:12;;;;;;;6.65;2.90;;;;;;;;;;5000064;28;20038;-72
2023/03/06 13:42:41;;;;;;;9.20;2.88;;;;;;;;;;5014411;28;20044;-72
2023/03/06 13:45:17;;;;;;;5.53;3.08;;;;;;;;;;5012711;28;20033;-73
2023/03/06 13:47:53;;;;;;;7.07;2.88;;;;;;;;;;5012449;28;20045;-74
2023/03/06 13:50:42;;;;;;;12.15;3.13;;;;;;;;;;5012518;28;20121;-73
2023/03/06 13:53:30;;;;;;;10.82;3.63;;;;;;;;;;5011347;28;20030;-73
2023/03/06 13:56:34;;;;;;;4.78;2.70;;;;;;;;;;5012166;28;20534;-72
2023/03/06 13:59:22;;;;;;;8.73;3.40;;;;;;;;;;4988695;28;20131;-72
2023/03/06 14:02:00;;;;;;;7.32;2.80;;;;;;;;;;5011049;28;20065;-72
2023/03/06 14:04:52;;;;;;;5.53;2.92;;;;;;;;;;5011955;28;20042;-71
2023/03/06 14:07:24;;;;;;;7.97;2.47;;;;;;;;;;5027757;28;20506;-72
2023/03/06 14:09:56;;;;;;;6.00;2.20;;;;;;;;;;5032005;28;20442;-72
2023/03/06 14:12:30;;;;;;;5.70;2.88;;;;;;;;;;5014233;28;20453;-73
2023/03/06 14:15:02;;;;;;;7.40;2.92;;;;;;;;;;5031903;28;20112;-72
2023/03/06 14:17:31;;;;;;;4.65;2.47;;;;;;;;;;5031857;28;20034;-72
2023/03/06 14:20:01;;;;;;;5.90;2.75;;;;;;;;;;5032066;28;20052;-72
2023/03/06 14:22:27;;;;;;;5.65;2.80;;;;;;;;;;5032202;28;20043;-73
2023/03/06 14:24:57;;;;;;;7.80;2.70;;;;;;;;;;5032064;28;20100;-74
2023/03/06 14:27:42;;;;;;;4.82;2.70;;;;;;;;;;5031970;28;20445;-72
2023/03/06 14:30:16;;;;;;;5.15;2.47;;;;;;;;;;5031602;28;20029;-73
2023/03/06 14:32:42;;;;;;;4.18;2.45;;;;;;;;;;5031554;28;20095;-73
2023/03/06 14:35:29;;;;;;;6.63;2.50;;;;;;;;;;5031899;28;20017;-73
2023/03/06 14:38:02;;;;;;;8.00;2.35;;;;;;;;;;5013705;28;20109;-72
2023/03/06 14:40:35;;;;;;;6.18;2.35;;;;;;;;;;5028643;28;20048;-72
2023/03/06 14:43:25;;;;;;;5.15;2.70;;;;;;;;;;5031246;28;20465;-72
2023/03/06 14:46:05;;;;;;;8.02;2.67;;;;;;;;;;5030089;28;20080;-72
2023/03/06 14:48:40;;;;;;;4.97;2.85;;;;;;;;;;5031068;28;20041;-72